Time;durP1;ratioP1;P1;durP2;ratioP2;P2;SDS_P1;SDS_P2;PMS_P1;PMS_P2;Temp;Humidity;BMP_temperature;BMP_pressure;BME280_temperature;BME280_humidity;BME280_pressure;Samples;Min_cycle;Max_cycle;Signal;HPM_P1;HPM_P2
2023/11/05 00:02:25;;;;;;;13.10;5.70;;;;;;;;;;5042292;28;20495;-60
2023/11/05 00:04:51;;;;;;;10.93;4.68;;;;;;;;;;5042958;28;20048;-60
2023/11/05 00:07:17;;;;;;;15.77;4.93;;;;;;;;;;5043394;28;20067;-60
2023/11/05 00:09:43;;;;;;;21.65;6.40;;;;;;;;;;5043822;28;20056;-60
2023/11/05 00:12:10;;;;;;;11.82;4.93;;;;;;;;;;5041723;28;20044;-60
2023/11/05 00:14:36;;;;;;;16.65;4.55;;;;;;;;;;5045729;28;20045;-60
2023/11/05 00:17:03;;;;;;;20.90;4.82;;;;;;;;;;5041072;28;20106;-60
2023/11/05 00:19:29;;;;;;;12.65;4.10;;;;;;;;;;5047900;28;20052;-60
2023/11/05 00:21:55;;;;;;;14.10;4.60;;;;;;;;;;5042563;28;20369;-60
2023/11/05 00:24:21;;;;;;;13.98;4.70;;;;;;;;;;5044486;28;20462;-60
2023/11/05 00:26:47;;;;;;;13.82;4.25;;;;;;;;;;5044629;28;20109;-60
2023/11/05 00:29:14;;;;;;;14.15;4.43;;;;;;;;;;5041707;28;20055;-60
2023/11/05 00:31:41;;;;;;;14.27;4.32;;;;;;;;;;5040079;28;20115;-60
2023/11/05 00:34:07;;;;;;;18.70;4.47;;;;;;;;;;5044061;28;20045;-60
2023/11/05 00:36:33;;;;;;;16.52;4.45;;;;;;;;;;5042014;28;20095;-60
2023/11/05 00:38:59;;;;;;;13.90;4.80;;;;;;;;;;5041928;28;20147;-60
2023/11/05 00:41:25;;;;;;;18.98;4.60;;;;;;;;;;5042000;28;20069;-60
2023/11/05 00:43:52;;;;;;;14.38;4.60;;;;;;;;;;5041797;28;20390;-60
2023/11/05 00:46:18;;;;;;;18.88;4.13;;;;;;;;;;5042383;28;20400;-60
2023/11/05 00:48:44;;;;;;;15.80;4.20;;;;;;;;;;5045512;28;20067;-60
2023/11/05 00:51:11;;;;;;;19.10;4.15;;;;;;;;;;5041207;28;20039;-60
2023/11/05 00:53:37;;;;;;;16.60;3.80;;;;;;;;;;5043556;28;20037;-60
2023/11/05 00:56:04;;;;;;;17.00;5.07;;;;;;;;;;5046732;28;20041;-60
2023/11/05 00:58:31;;;;;;;22.00;4.38;;;;;;;;;;5045016;28;20041;-60
2023/11/05 01:00:58;;;;;;;22.52;4.38;;;;;;;;;;5045306;28;20055;-60
2023/11/05 01:03:24;;;;;;;15.77;4.13;;;;;;;;;;5045488;28;20130;-60
2023/11/05 01:05:51;;;;;;;18.67;4.40;;;;;;;;;;5044829;28;20059;-60
2023/11/05 01:08:17;;;;;;;20.17;4.80;;;;;;;;;;5046536;28;20489;-60
2023/11/05 01:10:43;;;;;;;19.92;4.32;;;;;;;;;;5046029;28;20274;-60
2023/11/05 01:13:09;;;;;;;17.45;4.78;;;;;;;;;;5044583;28;20048;-60
2023/11/05 01:15:36;;;;;;;14.88;3.70;;;;;;;;;;5044918;28;20477;-60
2023/11/05 01:18:03;;;;;;;15.05;4.55;;;;;;;;;;5044189;28;20072;-60
2023/11/05 01:20:30;;;;;;;17.42;5.50;;;;;;;;;;5026138;28;20485;-60
2023/11/05 01:22:56;;;;;;;19.15;4.03;;;;;;;;;;5044360;28;20271;-60
2023/11/05 01:25:22;;;;;;;16.17;3.75;;;;;;;;;;5046016;28;20053;-60
2023/11/05 01:27:48;;;;;;;17.00;4.25;;;;;;;;;;5044946;28;20116;-60
2023/11/05 01:30:14;;;;;;;17.85;4.25;;;;;;;;;;5044331;28;20477;-60
2023/11/05 01:32:41;;;;;;;19.83;4.05;;;;;;;;;;5046068;28;20095;-60
2023/11/05 01:35:07;;;;;;;21.80;4.10;;;;;;;;;;5044066;28;20043;-60
2023/11/05 01:37:33;;;;;;;20.55;3.45;;;;;;;;;;5046159;28;20489;-60
2023/11/05 01:39:59;;;;;;;17.02;4.25;;;;;;;;;;5045014;28;20052;-60
2023/11/05 01:42:26;;;;;;;21.98;3.78;;;;;;;;;;5044835;28;20124;-60
2023/11/05 01:44:52;;;;;;;19.45;4.57;;;;;;;;;;5043720;28;20480;-60
2023/11/05 01:47:18;;;;;;;21.20;4.95;;;;;;;;;;5045732;28;20535;-60
2023/11/05 01:49:44;;;;;;;21.55;4.35;;;;;;;;;;5041977;28;20033;-60
2023/11/05 01:52:10;;;;;;;22.75;4.82;;;;;;;;;;5045446;28;20386;-60
2023/11/05 01:54:38;;;;;;;20.48;4.32;;;;;;;;;;5044059;28;20110;-60
2023/11/05 01:57:04;;;;;;;32.22;4.35;;;;;;;;;;5045489;28;20118;-61
2023/11/05 01:59:31;;;;;;;17.33;3.20;;;;;;;;;;5044613;28;20122;-60
2023/11/05 02:01:57;;;;;;;26.63;3.83;;;;;;;;;;5044797;28;20052;-60
2023/11/05 02:04:23;;;;;;;20.75;3.40;;;;;;;;;;5044294;28;20128;-61
2023/11/05 02:06:50;;;;;;;19.40;4.10;;;;;;;;;;5044370;28;20068;-60
2023/11/05 02:09:16;;;;;;;25.60;5.63;;;;;;;;;;5044749;28;20053;-60
2023/11/05 02:11:42;;;;;;;16.67;3.63;;;;;;;;;;5043629;28;20043;-60
2023/11/05 02:14:13;;;;;;;20.92;3.95;;;;;;;;;;5044343;28;20140;-60
2023/11/05 02:16:39;;;;;;;21.50;4.13;;;;;;;;;;5043379;28;20037;-60
2023/11/05 02:19:06;;;;;;;22.23;4.57;;;;;;;;;;5043167;28;20098;-60
2023/11/05 02:21:50;;;;;;;30.98;4.03;;;;;;;;;;5043134;28;20049;-60
2023/11/05 02:24:17;;;;;;;24.40;3.38;;;;;;;;;;5043464;28;20057;-60
2023/11/05 02:26:54;;;;;;;25.77;5.07;;;;;;;;;;5045145;28;20112;-60
2023/11/05 02:29:20;;;;;;;16.02;3.65;;;;;;;;;;5043112;28;20174;-60
2023/11/05 02:31:46;;;;;;;24.73;4.05;;;;;;;;;;5046830;28;20400;-60
2023/11/05 02:34:12;;;;;;;22.27;3.45;;;;;;;;;;5041876;28;20084;-60
2023/11/05 02:36:39;;;;;;;18.80;3.42;;;;;;;;;;5021696;28;20052;-60
2023/11/05 02:39:05;;;;;;;18.63;2.85;;;;;;;;;;5042646;28;20127;-60
2023/11/05 02:41:32;;;;;;;17.95;3.17;;;;;;;;;;5042732;28;20056;-60
2023/11/05 02:43:58;;;;;;;16.83;3.15;;;;;;;;;;5045525;28;20485;-60
2023/11/05 02:46:24;;;;;;;19.27;3.42;;;;;;;;;;5043162;28;20433;-60
2023/11/05 02:48:50;;;;;;;23.05;3.47;;;;;;;;;;5044330;28;20045;-60
2023/11/05 02:51:16;;;;;;;25.15;3.67;;;;;;;;;;5042846;28;20037;-60
2023/11/05 02:53:42;;;;;;;22.85;3.38;;;;;;;;;;5040784;28;20048;-60
2023/11/05 02:56:09;;;;;;;18.98;4.65;;;;;;;;;;5044235;28;20052;-60
2023/11/05 02:58:36;;;;;;;17.88;3.08;;;;;;;;;;5043623;28;20504;-60
2023/11/05 03:01:03;;;;;;;21.15;3.25;;;;;;;;;;5041965;28;20117;-60
2023/11/05 03:03:30;;;;;;;16.58;3.78;;;;;;;;;;5043622;28;20053;-60
2023/11/05 03:05:56;;;;;;;24.73;3.88;;;;;;;;;;5025987;28;20158;-60
2023/11/05 03:08:22;;;;;;;19.52;4.15;;;;;;;;;;5042976;28;20037;-60
2023/11/05 03:10:48;;;;;;;19.50;3.75;;;;;;;;;;5043623;28;20041;-60
2023/11/05 03:13:14;;;;;;;18.13;2.80;;;;;;;;;;5041218;28;20505;-60
2023/11/05 03:15:41;;;;;;;15.80;3.05;;;;;;;;;;5045174;28;20397;-60
2023/11/05 03:18:07;;;;;;;16.58;3.30;;;;;;;;;;5044842;28;20405;-60
2023/11/05 03:20:33;;;;;;;19.40;3.63;;;;;;;;;;5049657;28;20496;-60
2023/11/05 03:23:00;;;;;;;17.17;3.40;;;;;;;;;;5048814;28;20517;-60
2023/11/05 03:25:27;;;;;;;20.27;3.92;;;;;;;;;;5050013;28;20045;-60
2023/11/05 03:27:53;;;;;;;18.00;4.20;;;;;;;;;;5047052;28;20060;-60
2023/11/05 03:30:19;;;;;;;18.73;4.10;;;;;;;;;;5048763;28;20432;-60
2023/11/05 03:32:45;;;;;;;25.30;3.90;;;;;;;;;;5047049;28;20037;-60
2023/11/05 03:35:12;;;;;;;17.75;3.38;;;;;;;;;;5049036;28;20059;-60
2023/11/05 03:37:39;;;;;;;17.58;2.95;;;;;;;;;;5049298;28;20432;-60
2023/11/05 03:40:05;;;;;;;19.85;3.13;;;;;;;;;;5049426;28;20059;-60
2023/11/05 03:42:31;;;;;;;16.30;2.97;;;;;;;;;;5048996;28;20045;-60
2023/11/05 03:44:57;;;;;;;18.05;3.05;;;;;;;;;;5050339;28;20094;-60
2023/11/05 03:47:24;;;;;;;22.25;3.45;;;;;;;;;;5046834;28;20092;-60
2023/11/05 03:49:50;;;;;;;20.20;3.38;;;;;;;;;;5048724;28;20087;-61
2023/11/05 03:52:16;;;;;;;15.75;2.83;;;;;;;;;;5047875;28;20076;-60
2023/11/05 03:54:42;;;;;;;18.83;3.08;;;;;;;;;;5046621;28;20411;-60
2023/11/05 03:57:08;;;;;;;17.35;2.85;;;;;;;;;;5047628;28;20052;-60
2023/11/05 03:59:35;;;;;;;16.20;2.97;;;;;;;;;;5048447;28;20071;-60
2023/11/05 04:02:01;;;;;;;19.80;3.00;;;;;;;;;;5044091;28;20445;-60
2023/11/05 04:04:30;;;;;;;19.02;3.40;;;;;;;;;;5048768;28;20085;-60
2023/11/05 04:06:56;;;;;;;19.70;4.03;;;;;;;;;;5048845;28;20041;-60
2023/11/05 04:09:22;;;;;;;20.70;2.95;;;;;;;;;;5046463;28;20757;-60
2023/11/05 04:11:48;;;;;;;18.30;3.05;;;;;;;;;;5047450;28;20044;-60
2023/11/05 04:14:15;;;;;;;19.17;2.65;;;;;;;;;;5050609;28;20044;-60
2023/11/05 04:16:41;;;;;;;24.75;4.05;;;;;;;;;;5047250;28;20180;-60
2023/11/05 04:19:10;;;;;;;16.30;3.03;;;;;;;;;;5045619;28;20047;-60
2023/11/05 04:21:37;;;;;;;19.27;3.38;;;;;;;;;;5044986;28;20044;-60
2023/11/05 04:24:03;;;;;;;17.70;4.20;;;;;;;;;;5046687;28;20048;-60
2023/11/05 04:26:29;;;;;;;17.85;4.07;;;;;;;;;;5044771;28;20037;-60
2023/11/05 04:28:55;;;;;;;23.00;3.65;;;;;;;;;;5042105;28;20061;-60
2023/11/05 04:31:22;;;;;;;19.77;4.45;;;;;;;;;;5043879;28;20118;-60
2023/11/05 04:33:48;;;;;;;13.82;3.08;;;;;;;;;;5041183;28;20048;-60
2023/11/05 04:36:14;;;;;;;18.08;2.55;;;;;;;;;;5041976;28;20484;-60
2023/11/05 04:38:41;;;;;;;18.65;4.07;;;;;;;;;;5041556;28;20126;-60
2023/11/05 04:41:07;;;;;;;13.98;2.83;;;;;;;;;;5041226;28;20046;-60
2023/11/05 04:43:34;;;;;;;17.58;2.85;;;;;;;;;;5041403;28;20049;-60
2023/11/05 04:46:00;;;;;;;14.23;2.55;;;;;;;;;;5041721;28;20049;-60
2023/11/05 04:48:26;;;;;;;13.52;3.70;;;;;;;;;;5042781;28;20068;-60
2023/11/05 04:50:53;;;;;;;20.92;2.97;;;;;;;;;;5045098;28;20555;-60
2023/11/05 04:53:19;;;;;;;16.08;3.13;;;;;;;;;;5046517;28;20037;-60
2023/11/05 04:55:46;;;;;;;20.17;4.28;;;;;;;;;;5043100;28;20041;-60
2023/11/05 04:58:12;;;;;;;16.15;2.95;;;;;;;;;;5040744;28;20048;-60
2023/11/05 05:00:39;;;;;;;22.00;3.95;;;;;;;;;;5022920;28;20349;-60
2023/11/05 05:03:05;;;;;;;14.48;3.00;;;;;;;;;;5039562;28;20037;-60
2023/11/05 05:05:31;;;;;;;19.73;3.72;;;;;;;;;;5041292;28;20045;-60
2023/11/05 05:07:57;;;;;;;17.60;3.55;;;;;;;;;;5043062;28;20048;-60
2023/11/05 05:10:23;;;;;;;18.80;3.15;;;;;;;;;;5042066;28;20053;-60
2023/11/05 05:12:49;;;;;;;18.20;3.20;;;;;;;;;;5041419;28;20068;-60
2023/11/05 05:15:16;;;;;;;24.05;4.25;;;;;;;;;;5041604;28;20468;-61
2023/11/05 05:17:42;;;;;;;23.98;4.57;;;;;;;;;;5040445;28;20528;-60
2023/11/05 05:20:08;;;;;;;13.70;2.85;;;;;;;;;;5041034;28;20044;-60
2023/11/05 05:22:34;;;;;;;20.75;2.75;;;;;;;;;;5042938;28;20416;-60
2023/11/05 05:25:00;;;;;;;16.27;2.83;;;;;;;;;;5041906;28;20123;-60
2023/11/05 05:27:27;;;;;;;18.33;3.80;;;;;;;;;;5038173;28;20136;-60
2023/11/05 05:29:53;;;;;;;15.98;2.92;;;;;;;;;;5042004;28;20061;-60
2023/11/05 05:32:19;;;;;;;19.02;3.08;;;;;;;;;;5043079;28;20116;-60
2023/11/05 05:34:45;;;;;;;18.55;2.97;;;;;;;;;;5034074;28;20742;-60
2023/11/05 05:37:14;;;;;;;17.35;2.95;;;;;;;;;;5048086;28;20120;-60
2023/11/05 05:39:40;;;;;;;17.65;2.92;;;;;;;;;;5045327;28;20091;-60
2023/11/05 05:42:06;;;;;;;13.90;2.90;;;;;;;;;;5042950;28;20512;-60
2023/11/05 05:44:33;;;;;;;16.20;2.85;;;;;;;;;;5043424;28;20087;-60
2023/11/05 05:47:00;;;;;;;12.90;2.47;;;;;;;;;;5044610;28;20049;-60
2023/11/05 05:49:26;;;;;;;12.68;3.25;;;;;;;;;;5048551;28;20052;-60
2023/11/05 05:51:53;;;;;;;16.58;3.33;;;;;;;;;;5045998;28;20112;-60
2023/11/05 05:54:19;;;;;;;17.42;3.35;;;;;;;;;;5045734;28;20454;-60
2023/11/05 05:56:45;;;;;;;23.13;3.20;;;;;;;;;;5044684;28;20056;-60
2023/11/05 05:59:11;;;;;;;18.98;3.00;;;;;;;;;;5045743;28;20080;-60
2023/11/05 06:01:37;;;;;;;22.67;3.70;;;;;;;;;;5027152;28;20572;-60
2023/11/05 06:04:04;;;;;;;21.75;3.40;;;;;;;;;;5043883;28;20254;-60
2023/11/05 06:06:30;;;;;;;18.65;2.78;;;;;;;;;;5044076;28;20562;-60
2023/11/05 06:08:57;;;;;;;17.23;4.55;;;;;;;;;;5043756;28;21420;-60
2023/11/05 06:11:23;;;;;;;14.10;2.92;;;;;;;;;;5044781;28;20064;-60
2023/11/05 06:13:49;;;;;;;14.75;3.42;;;;;;;;;;5044451;28;20029;-60
2023/11/05 06:16:15;;;;;;;23.25;4.03;;;;;;;;;;5044415;28;20048;-60
2023/11/05 06:18:41;;;;;;;15.85;2.92;;;;;;;;;;5048837;28;20033;-60
2023/11/05 06:21:08;;;;;;;21.42;3.30;;;;;;;;;;5044002;28;20059;-60
2023/11/05 06:23:34;;;;;;;16.63;3.45;;;;;;;;;;5044651;28;20107;-60
2023/11/05 06:26:00;;;;;;;17.20;3.85;;;;;;;;;;5043806;28;20055;-60
2023/11/05 06:28:26;;;;;;;14.07;2.90;;;;;;;;;;5043773;28;20144;-60
2023/11/05 06:30:54;;;;;;;19.35;3.20;;;;;;;;;;5043910;28;20053;-60
2023/11/05 06:33:22;;;;;;;21.08;4.05;;;;;;;;;;5044454;28;20060;-60
2023/11/05 06:35:48;;;;;;;16.05;3.00;;;;;;;;;;5045829;28;20079;-60
2023/11/05 06:38:14;;;;;;;13.30;2.60;;;;;;;;;;5042894;28;20041;-60
2023/11/05 06:40:41;;;;;;;11.45;2.83;;;;;;;;;;5044387;28;20041;-61
2023/11/05 06:43:07;;;;;;;19.10;3.30;;;;;;;;;;5042665;28;20396;-60
2023/11/05 06:45:33;;;;;;;15.32;2.92;;;;;;;;;;5043844;28;20093;-60
2023/11/05 06:48:00;;;;;;;17.13;2.85;;;;;;;;;;5043725;28;20033;-60
2023/11/05 06:50:26;;;;;;;16.73;4.43;;;;;;;;;;5042850;28;20061;-60
2023/11/05 06:52:53;;;;;;;16.38;3.83;;;;;;;;;;5043676;28;20619;-60
2023/11/05 06:55:19;;;;;;;15.77;3.47;;;;;;;;;;5044383;28;20064;-60
2023/11/05 06:57:45;;;;;;;21.60;3.70;;;;;;;;;;5042925;28;20045;-60
2023/11/05 07:00:12;;;;;;;16.42;4.20;;;;;;;;;;5044670;28;20095;-60
2023/11/05 07:02:38;;;;;;;12.80;3.72;;;;;;;;;;5049387;28;20369;-60
2023/11/05 07:05:04;;;;;;;15.20;3.22;;;;;;;;;;5049276;28;20124;-60
2023/11/05 07:07:33;;;;;;;17.98;3.72;;;;;;;;;;5052007;28;20401;-60
2023/11/05 07:10:00;;;;;;;18.63;3.95;;;;;;;;;;5039960;28;20334;-60
2023/11/05 07:12:27;;;;;;;19.45;3.55;;;;;;;;;;5051018;28;20441;-60
2023/11/05 07:14:53;;;;;;;13.77;3.22;;;;;;;;;;5041220;28;20053;-61
2023/11/05 07:17:19;;;;;;;21.52;4.30;;;;;;;;;;5042679;28;20649;-60
2023/11/05 07:19:46;;;;;;;13.98;3.70;;;;;;;;;;5048051;28;20075;-60
2023/11/05 07:22:13;;;;;;;23.77;4.05;;;;;;;;;;5054853;28;20041;-60
2023/11/05 07:24:40;;;;;;;18.45;4.72;;;;;;;;;;5051386;28;20049;-60
2023/11/05 07:27:06;;;;;;;12.82;3.80;;;;;;;;;;5050786;28;20045;-60
2023/11/05 07:29:32;;;;;;;13.18;2.97;;;;;;;;;;5051121;28;20562;-60
2023/11/05 07:31:59;;;;;;;16.08;3.78;;;;;;;;;;5048686;28;20056;-60
2023/11/05 07:34:25;;;;;;;17.05;4.05;;;;;;;;;;5049876;28;20113;-60
2023/11/05 07:36:52;;;;;;;16.42;5.53;;;;;;;;;;5043739;28;20377;-61
2023/11/05 07:39:18;;;;;;;19.52;4.07;;;;;;;;;;5045601;28;20076;-61
2023/11/05 07:41:45;;;;;;;16.25;3.83;;;;;;;;;;5048581;28;20041;-60
2023/11/05 07:44:11;;;;;;;12.07;3.72;;;;;;;;;;5050097;28;20048;-61
2023/11/05 07:46:38;;;;;;;11.70;3.08;;;;;;;;;;5050336;28;20041;-60
2023/11/05 07:49:05;;;;;;;13.68;4.07;;;;;;;;;;5051153;28;20049;-60
2023/11/05 07:51:32;;;;;;;16.10;3.92;;;;;;;;;;5051004;28;20382;-61
2023/11/05 07:53:59;;;;;;;9.77;3.45;;;;;;;;;;5045546;28;20147;-60
2023/11/05 07:56:25;;;;;;;11.32;3.17;;;;;;;;;;5040608;28;20424;-60
2023/11/05 07:58:51;;;;;;;11.20;3.40;;;;;;;;;;5049254;28;20461;-60
2023/11/05 08:01:18;;;;;;;11.48;3.00;;;;;;;;;;5049393;28;20045;-60
2023/11/05 08:03:44;;;;;;;12.38;3.17;;;;;;;;;;5046995;28;20135;-60
2023/11/05 08:06:11;;;;;;;11.25;3.33;;;;;;;;;;5050624;28;20392;-60
2023/11/05 08:08:37;;;;;;;8.80;3.10;;;;;;;;;;5049799;28;20075;-60
2023/11/05 08:11:03;;;;;;;10.07;3.47;;;;;;;;;;5049191;28;20076;-60
2023/11/05 08:13:30;;;;;;;9.90;3.72;;;;;;;;;;5043242;28;20051;-60
2023/11/05 08:15:57;;;;;;;9.13;2.95;;;;;;;;;;5049737;28;20059;-60
2023/11/05 08:18:24;;;;;;;11.95;3.10;;;;;;;;;;5049484;28;20063;-60
2023/11/05 08:20:50;;;;;;;9.00;3.15;;;;;;;;;;5049815;28;20444;-60
2023/11/05 08:23:17;;;;;;;6.18;2.58;;;;;;;;;;5049837;28;20039;-60
2023/11/05 08:25:43;;;;;;;5.07;2.63;;;;;;;;;;5050413;28;20059;-60
2023/11/05 08:28:10;;;;;;;7.72;2.35;;;;;;;;;;5041582;28;20046;-61
2023/11/05 08:30:36;;;;;;;6.75;2.45;;;;;;;;;;5043529;28;20057;-60
2023/11/05 08:33:02;;;;;;;8.65;2.60;;;;;;;;;;5048581;28;20483;-60
2023/11/05 08:35:28;;;;;;;10.00;3.28;;;;;;;;;;5050582;28;20041;-60
2023/11/05 08:37:57;;;;;;;9.52;2.25;;;;;;;;;;5049567;28;20037;-60
2023/11/05 08:40:25;;;;;;;7.75;2.90;;;;;;;;;;5050437;28;20080;-60
2023/11/05 08:42:51;;;;;;;10.45;3.42;;;;;;;;;;5049683;28;20053;-60
2023/11/05 08:45:18;;;;;;;9.15;3.80;;;;;;;;;;5049569;28;20103;-60
2023/11/05 08:47:44;;;;;;;12.13;3.50;;;;;;;;;;5048477;28;20048;-60
2023/11/05 08:50:10;;;;;;;11.65;3.78;;;;;;;;;;5049663;28;20392;-60
2023/11/05 08:52:37;;;;;;;9.95;3.67;;;;;;;;;;5050342;28;20124;-60
2023/11/05 08:55:04;;;;;;;7.65;3.38;;;;;;;;;;5050267;28;20551;-60
2023/11/05 08:57:30;;;;;;;9.38;3.63;;;;;;;;;;5049536;28;20098;-60
2023/11/05 08:59:56;;;;;;;9.07;3.78;;;;;;;;;;5050247;28;20395;-60
2023/11/05 09:02:23;;;;;;;9.10;3.90;;;;;;;;;;5046431;28;20037;-60
2023/11/05 09:04:49;;;;;;;11.68;4.82;;;;;;;;;;5049300;28;20054;-60
2023/11/05 09:07:16;;;;;;;15.32;4.32;;;;;;;;;;5049831;28;20075;-60
2023/11/05 09:09:42;;;;;;;17.55;4.90;;;;;;;;;;5050149;28;20052;-60
2023/11/05 09:12:09;;;;;;;13.63;5.00;;;;;;;;;;5049467;28;20152;-60
2023/11/05 09:14:36;;;;;;;10.90;4.70;;;;;;;;;;5052658;28;20130;-60
2023/11/05 09:17:03;;;;;;;9.88;4.72;;;;;;;;;;5053080;28;20041;-60
2023/11/05 09:19:29;;;;;;;11.30;5.00;;;;;;;;;;5052921;28;20052;-60
2023/11/05 09:21:55;;;;;;;12.73;5.60;;;;;;;;;;5053942;28;20505;-60
2023/11/05 09:24:21;;;;;;;14.52;5.75;;;;;;;;;;5053997;28;20155;-60
2023/11/05 09:26:47;;;;;;;13.55;5.82;;;;;;;;;;5052999;28;20136;-60
2023/11/05 09:29:15;;;;;;;15.43;5.57;;;;;;;;;;5053521;28;20079;-60
2023/11/05 09:31:42;;;;;;;13.15;5.65;;;;;;;;;;5050957;28;20079;-60
2023/11/05 09:34:09;;;;;;;15.50;6.35;;;;;;;;;;5052029;28;20507;-60
2023/11/05 09:36:35;;;;;;;12.63;5.43;;;;;;;;;;5045229;28;20169;-60
2023/11/05 09:39:01;;;;;;;13.10;6.10;;;;;;;;;;5052853;28;20059;-60
2023/11/05 09:41:28;;;;;;;11.27;5.43;;;;;;;;;;5053569;28;20105;-60
2023/11/05 09:43:54;;;;;;;14.73;5.97;;;;;;;;;;5053665;28;20102;-60
2023/11/05 09:46:25;;;;;;;13.68;6.38;;;;;;;;;;5050658;28;20454;-60
2023/11/05 09:48:51;;;;;;;15.98;6.10;;;;;;;;;;5053524;28;20112;-60
2023/11/05 09:51:17;;;;;;;17.30;6.07;;;;;;;;;;5035288;28;20060;-60
2023/11/05 09:53:43;;;;;;;14.05;5.70;;;;;;;;;;5051811;28;20382;-60
2023/11/05 09:56:10;;;;;;;14.13;6.45;;;;;;;;;;5053207;28;20123;-60
2023/11/05 09:58:36;;;;;;;16.48;6.85;;;;;;;;;;5053249;28;20091;-60
2023/11/05 10:01:05;;;;;;;21.42;6.78;;;;;;;;;;5052402;28;20053;-60
2023/11/05 10:03:31;;;;;;;16.73;6.60;;;;;;;;;;5053240;28;20132;-60
2023/11/05 10:05:57;;;;;;;18.30;6.93;;;;;;;;;;5049656;28;20099;-60
2023/11/05 10:08:24;;;;;;;20.35;8.10;;;;;;;;;;5049107;28;20230;-60
2023/11/05 10:10:52;;;;;;;18.33;7.45;;;;;;;;;;5052959;28;20064;-60
2023/11/05 10:13:18;;;;;;;13.93;6.90;;;;;;;;;;5052153;28;20448;-60
2023/11/05 10:15:45;;;;;;;16.02;7.25;;;;;;;;;;5052081;28;20041;-61
2023/11/05 10:18:18;;;;;;;17.23;7.47;;;;;;;;;;5053121;28;20052;-60
2023/11/05 10:20:52;;;;;;;16.40;8.25;;;;;;;;;;5052590;28;20496;-60
2023/11/05 10:23:18;;;;;;;18.02;7.65;;;;;;;;;;5052164;28;20093;-60
2023/11/05 10:25:50;;;;;;;13.40;7.22;;;;;;;;;;5034309;28;20080;-60
2023/11/05 10:28:17;;;;;;;16.92;7.60;;;;;;;;;;5050696;28;20071;-61
2023/11/05 10:30:47;;;;;;;17.13;7.60;;;;;;;;;;5052486;28;20059;-60
2023/11/05 10:33:14;;;;;;;19.00;7.88;;;;;;;;;;5050065;28;20048;-60
2023/11/05 10:35:40;;;;;;;18.92;8.00;;;;;;;;;;5044555;28;20509;-60
2023/11/05 10:38:18;;;;;;;20.48;7.85;;;;;;;;;;5048816;28;20079;-60
2023/11/05 10:40:45;;;;;;;23.42;10.25;;;;;;;;;;5047822;28;20041;-60
2023/11/05 10:43:12;;;;;;;16.08;7.68;;;;;;;;;;5048855;28;20106;-60
2023/11/05 10:45:39;;;;;;;19.55;8.15;;;;;;;;;;5051053;28;20041;-60
2023/11/05 10:48:06;;;;;;;18.10;8.20;;;;;;;;;;5049879;28;20133;-60
2023/11/05 10:50:34;;;;;;;19.98;7.78;;;;;;;;;;5045586;28;20045;-60
2023/11/05 10:53:04;;;;;;;20.60;8.40;;;;;;;;;;5049192;28;20033;-60
2023/11/05 10:55:41;;;;;;;20.58;8.35;;;;;;;;;;5052010;28;20510;-60
2023/11/05 10:58:08;;;;;;;28.05;9.50;;;;;;;;;;5051252;28;20179;-60
2023/11/05 11:00:34;;;;;;;21.13;8.80;;;;;;;;;;5049041;28;20497;-60
2023/11/05 11:03:01;;;;;;;21.23;8.75;;;;;;;;;;5049074;28;20033;-60
2023/11/05 11:05:46;;;;;;;17.55;8.80;;;;;;;;;;5050410;28;20052;-60
2023/11/05 11:08:16;;;;;;;19.83;8.65;;;;;;;;;;5049798;28;20052;-60
2023/11/05 11:10:44;;;;;;;22.38;8.32;;;;;;;;;;5038119;28;20045;-61
2023/11/05 11:13:15;;;;;;;20.95;9.18;;;;;;;;;;5051871;28;20037;-61
2023/11/05 11:15:44;;;;;;;22.42;9.40;;;;;;;;;;5050899;28;20041;-60
2023/11/05 11:18:20;;;;;;;22.60;9.32;;;;;;;;;;5051014;28;20045;-60
2023/11/05 11:20:50;;;;;;;23.30;8.95;;;;;;;;;;5049926;28;20127;-60
2023/11/05 11:23:17;;;;;;;21.83;9.18;;;;;;;;;;5046231;28;20041;-60
2023/11/05 11:25:57;;;;;;;24.27;10.30;;;;;;;;;;5045398;28;20592;-64
2023/11/05 11:28:23;;;;;;;19.30;8.40;;;;;;;;;;5049582;28;20037;-59
2023/11/05 11:30:50;;;;;;;25.73;11.52;;;;;;;;;;5050481;28;20058;-61
2023/11/05 11:33:20;;;;;;;19.65;10.02;;;;;;;;;;5048315;28;20080;-60
2023/11/05 11:35:46;;;;;;;23.73;10.07;;;;;;;;;;5049877;28;20041;-60
2023/11/05 11:38:13;;;;;;;22.92;9.93;;;;;;;;;;5048380;28;20063;-60
2023/11/05 11:40:39;;;;;;;22.85;10.18;;;;;;;;;;5047558;28;20052;-59
2023/11/05 11:43:09;;;;;;;17.50;10.02;;;;;;;;;;5042410;28;20037;-60
2023/11/05 11:45:35;;;;;;;22.23;10.18;;;;;;;;;;5046322;28;20049;-60
2023/11/05 11:48:07;;;;;;;25.98;9.73;;;;;;;;;;5049230;28;20423;-60
2023/11/05 11:50:33;;;;;;;23.48;10.52;;;;;;;;;;5046003;28;20045;-60
2023/11/05 11:52:59;;;;;;;25.90;10.55;;;;;;;;;;5050259;28;20067;-63
2023/11/05 11:55:26;;;;;;;22.58;11.18;;;;;;;;;;5050911;28;20041;-60
2023/11/05 11:57:52;;;;;;;23.25;9.95;;;;;;;;;;5042932;28;20048;-60
2023/11/05 12:00:22;;;;;;;24.30;10.35;;;;;;;;;;5049902;28;20067;-60
2023/11/05 12:02:50;;;;;;;19.15;8.52;;;;;;;;;;5049941;28;20067;-60
2023/11/05 12:05:17;;;;;;;18.00;9.18;;;;;;;;;;5049884;28;20399;-60
2023/11/05 12:07:46;;;;;;;20.70;9.95;;;;;;;;;;5047519;28;20049;-61
2023/11/05 12:10:13;;;;;;;18.92;10.45;;;;;;;;;;5050683;28;20056;-60
2023/11/05 12:12:42;;;;;;;22.67;11.40;;;;;;;;;;5050668;28;20048;-60
2023/11/05 12:15:21;;;;;;;21.52;10.18;;;;;;;;;;5049823;28;20045;-60
2023/11/05 12:17:47;;;;;;;22.20;11.45;;;;;;;;;;5045968;28;20056;-60
2023/11/05 12:20:15;;;;;;;21.40;10.70;;;;;;;;;;5032644;28;20354;-60
2023/11/05 12:22:42;;;;;;;21.02;10.52;;;;;;;;;;5049698;28;20517;-60
2023/11/05 12:25:12;;;;;;;21.02;10.88;;;;;;;;;;5037915;28;20453;-60
2023/11/05 12:27:46;;;;;;;22.00;10.73;;;;;;;;;;5048630;28;20045;-60
2023/11/05 12:30:12;;;;;;;14.88;8.55;;;;;;;;;;5050530;28;20132;-60
2023/11/05 12:32:42;;;;;;;25.73;9.55;;;;;;;;;;5050470;28;20037;-60
2023/11/05 12:35:10;;;;;;;20.38;9.38;;;;;;;;;;5048186;28;20386;-60
2023/11/05 12:37:37;;;;;;;16.60;7.28;;;;;;;;;;5042801;28;20414;-61
2023/11/05 12:40:04;;;;;;;17.08;7.45;;;;;;;;;;5048082;28;20119;-60
2023/11/05 12:42:33;;;;;;;17.23;7.68;;;;;;;;;;5052360;28;20123;-60
2023/11/05 12:44:59;;;;;;;8.07;4.70;;;;;;;;;;5049590;28;20060;-61
2023/11/05 12:47:26;;;;;;;13.02;5.22;;;;;;;;;;5051979;28;20045;-61
2023/11/05 12:49:52;;;;;;;11.38;4.32;;;;;;;;;;5050848;28;20132;-60
2023/11/05 12:52:19;;;;;;;12.90;4.63;;;;;;;;;;5053723;28;20045;-61
2023/11/05 12:54:45;;;;;;;10.23;4.68;;;;;;;;;;5051608;28;20103;-61
2023/11/05 12:57:11;;;;;;;13.10;4.70;;;;;;;;;;5047822;28;20063;-61
2023/11/05 12:59:40;;;;;;;10.63;4.53;;;;;;;;;;5048726;28;20394;-61
2023/11/05 13:02:06;;;;;;;11.80;3.80;;;;;;;;;;5054436;28;20405;-60
2023/11/05 13:04:34;;;;;;;10.88;3.70;;;;;;;;;;5050206;28;20053;-61
2023/11/05 13:07:04;;;;;;;10.55;3.47;;;;;;;;;;5052433;28;20108;-61
2023/11/05 13:09:32;;;;;;;8.30;3.47;;;;;;;;;;5051424;28;20052;-66
2023/11/05 13:11:58;;;;;;;9.50;2.50;;;;;;;;;;5036590;28;20045;-66
2023/11/05 13:14:25;;;;;;;6.72;2.97;;;;;;;;;;5033508;28;20049;-65
2023/11/05 13:16:51;;;;;;;9.05;2.53;;;;;;;;;;5032001;28;20388;-65
2023/11/05 13:19:17;;;;;;;7.00;2.13;;;;;;;;;;5028033;28;20055;-66
2023/11/05 13:21:47;;;;;;;4.18;1.80;;;;;;;;;;5030415;28;20644;-65
2023/11/05 13:24:13;;;;;;;7.25;2.05;;;;;;;;;;5036262;28;20052;-65
2023/11/05 13:26:39;;;;;;;5.57;1.88;;;;;;;;;;5036090;28;20045;-66
2023/11/05 13:29:08;;;;;;;6.07;1.40;;;;;;;;;;5030687;28;20095;-65
2023/11/05 13:31:34;;;;;;;5.55;1.10;;;;;;;;;;5044782;28;20140;-65
2023/11/05 13:34:00;;;;;;;5.85;1.08;;;;;;;;;;5011407;28;20049;-65
2023/11/05 13:36:27;;;;;;;5.10;1.23;;;;;;;;;;5028845;28;20451;-65
2023/11/05 13:38:54;;;;;;;4.85;1.13;;;;;;;;;;5055814;28;20040;-65
2023/11/05 13:41:20;;;;;;;5.70;1.48;;;;;;;;;;5022399;28;20128;-65
2023/11/05 13:43:49;;;;;;;6.57;1.20;;;;;;;;;;5057877;28;20129;-65
2023/11/05 13:46:16;;;;;;;5.28;1.10;;;;;;;;;;5027619;28;20052;-65
2023/11/05 13:48:42;;;;;;;3.85;1.05;;;;;;;;;;5052693;28;20049;-66
2023/11/05 13:51:08;;;;;;;4.68;0.98;;;;;;;;;;5035635;28;20148;-67
2023/11/05 13:53:34;;;;;;;5.05;0.98;;;;;;;;;;5063726;28;20056;-66
2023/11/05 13:56:02;;;;;;;6.03;1.40;;;;;;;;;;5061996;28;20044;-67
2023/11/05 13:58:29;;;;;;;5.53;1.00;;;;;;;;;;5046439;28;20045;-66
2023/11/05 14:00:55;;;;;;;3.22;1.00;;;;;;;;;;5049066;28;20112;-62
2023/11/05 14:03:21;;;;;;;5.20;0.80;;;;;;;;;;5029973;28;20195;-66
2023/11/05 14:05:47;;;;;;;3.00;0.85;;;;;;;;;;5035246;28;20435;-65
2023/11/05 14:08:15;;;;;;;5.45;1.05;;;;;;;;;;5051862;28;20125;-66
2023/11/05 14:10:41;;;;;;;3.15;1.17;;;;;;;;;;5051253;28;20051;-66
2023/11/05 14:13:08;;;;;;;5.07;1.60;;;;;;;;;;5046229;28;20059;-65
2023/11/05 14:15:34;;;;;;;4.82;1.40;;;;;;;;;;5049371;28;20044;-65
2023/11/05 14:18:01;;;;;;;6.47;1.35;;;;;;;;;;5067698;28;20434;-66
2023/11/05 14:20:27;;;;;;;6.88;1.48;;;;;;;;;;5065845;28;20067;-66
2023/11/05 14:22:53;;;;;;;5.80;1.48;;;;;;;;;;5047731;28;20053;-66
2023/11/05 14:25:19;;;;;;;5.55;1.50;;;;;;;;;;5049490;28;20060;-65
2023/11/05 14:27:45;;;;;;;7.10;1.60;;;;;;;;;;5035678;28;20096;-66
2023/11/05 14:30:12;;;;;;;5.65;1.35;;;;;;;;;;5061986;28;20440;-66